Time;durP1;ratioP1;P1;durP2;ratioP2;P2;SDS_P1;SDS_P2;PMS_P1;PMS_P2;Temp;Humidity;BMP_temperature;BMP_pressure;BME280_temperature;BME280_humidity;BME280_pressure;Samples;Min_cycle;Max_cycle;Signal;HPM_P1;HPM_P2
2023/06/19 00:00:21;;;;;;;;;;;;;;;;;;5091038;28;19928;-62
2023/06/19 00:02:47;;;;;;;;;;;;;;;;;;5091426;28;19969;-62
2023/06/19 00:05:12;;;;;;;;;;;;;;;;;;5090998;28;19967;-62
2023/06/19 00:07:38;;;;;;;;;;;;;;;;;;5090908;28;20000;-62
2023/06/19 00:10:04;;;;;;;;;;;;;;;;;;5091293;28;19924;-62
2023/06/19 00:12:30;;;;;;;;;;;;;;;;;;5091254;28;20015;-62
2023/06/19 00:14:56;;;;;;;;;;;;;;;;;;5090502;28;19924;-62
2023/06/19 00:17:25;;;;;;;;;;;;;;;;;;5091133;28;19928;-62
2023/06/19 00:19:51;;;;;;;;;;;;;;;;;;5090893;28;19923;-62
2023/06/19 00:22:17;;;;;;;;;;;;;;;;;;5090731;28;19966;-62
2023/06/19 00:24:43;;;;;;;;;;;;;;;;;;5090897;28;19931;-62
2023/06/19 00:27:09;;;;;;;;;;;;;;;;;;5072648;28;19928;-62
2023/06/19 00:29:35;;;;;;;;;;;;;;;;;;5054325;28;19924;-62
2023/06/19 00:32:01;;;;;;;;;;;;;;;;;;5090560;28;19981;-62
2023/06/19 00:34:27;;;;;;;;;;;;;;;;;;5090699;28;19969;-62
2023/06/19 00:36:56;;;;;;;;;;;;;;;;;;5090252;28;19928;-62
2023/06/19 00:39:22;;;;;;;;;;;;;;;;;;5090778;28;20011;-62
2023/06/19 00:41:48;;;;;;;;;;;;;;;;;;5072299;28;20022;-62
2023/06/19 00:44:14;;;;;;;;;;;;;;;;;;5089772;28;19924;-62
2023/06/19 00:46:39;;;;;;;;;;;;;;;;;;5090559;28;19977;-62
2023/06/19 00:49:05;;;;;;;;;;;;;;;;;;5090599;28;20374;-63
2023/06/19 00:51:31;;;;;;;;;;;;;;;;;;5089852;28;19931;-63
2023/06/19 00:53:57;;;;;;;;;;;;;;;;;;5090524;28;19920;-63
2023/06/19 00:56:23;;;;;;;;;;;;;;;;;;5090337;28;19930;-63
2023/06/19 00:58:49;;;;;;;;;;;;;;;;;;5089771;28;19951;-63
2023/06/19 01:01:15;;;;;;;;;;;;;;;;;;5072089;28;19974;-63
2023/06/19 01:03:41;;;;;;;;;;;;;;;;;;5090237;28;19967;-63
2023/06/19 01:06:06;;;;;;;;;;;;;;;;;;5089837;28;19919;-63
2023/06/19 01:08:32;;;;;;;;;;;;;;;;;;5090333;28;19934;-63
2023/06/19 01:10:58;;;;;;;;;;;;;;;;;;5089472;28;19928;-63
2023/06/19 01:13:24;;;;;;;;;;;;;;;;;;5089142;28;19927;-63
2023/06/19 01:15:50;;;;;;;;;;;;;;;;;;5089939;28;19973;-63
2023/06/19 01:18:16;;;;;;;;;;;;;;;;;;5089754;28;20287;-63
2023/06/19 01:20:42;;;;;;;;;;;;;;;;;;5089489;28;20011;-63
2023/06/19 01:23:08;;;;;;;;;;;;;;;;;;5071373;28;19928;-63
2023/06/19 01:25:35;;;;;;;;;;;;;;;;;;5084570;28;19929;-63
2023/06/19 01:28:01;;;;;;;;;;;;;;;;;;5069154;28;20015;-63
2023/06/19 01:30:27;;;;;;;;;;;;;;;;;;5079452;28;19924;-63
2023/06/19 01:32:53;;;;;;;;;;;;;;;;;;5089458;28;19928;-63
2023/06/19 01:35:19;;;;;;;;;;;;;;;;;;5088846;28;19946;-63
2023/06/19 01:37:45;;;;;;;;;;;;;;;;;;5089706;28;19920;-63
2023/06/19 01:40:11;;;;;;;;;;;;;;;;;;5089587;28;20295;-63
2023/06/19 01:42:37;;;;;;;;;;;;;;;;;;5089175;28;19927;-63
2023/06/19 01:45:03;;;;;;;;;;;;;;;;;;5089567;28;19974;-63
2023/06/19 01:47:29;;;;;;;;;;;;;;;;;;5089899;28;19972;-63
2023/06/19 01:49:55;;;;;;;;;;;;;;;;;;5088746;28;19928;-63
2023/06/19 01:52:20;;;;;;;;;;;;;;;;;;5089405;28;19935;-63
2023/06/19 01:54:46;;;;;;;;;;;;;;;;;;5089064;28;19920;-63
2023/06/19 01:57:12;;;;;;;;;;;;;;;;;;5088844;28;19926;-63
2023/06/19 01:59:38;;;;;;;;;;;;;;;;;;5089577;28;19920;-63
2023/06/19 02:02:06;;;;;;;;;;;;;;;;;;5089260;28;19927;-63
2023/06/19 02:04:32;;;;;;;;;;;;;;;;;;5088436;28;20175;-63
2023/06/19 02:06:58;;;;;;;;;;;;;;;;;;5089275;28;19920;-63
2023/06/19 02:09:24;;;;;;;;;;;;;;;;;;5089039;28;19927;-63
2023/06/19 02:11:50;;;;;;;;;;;;;;;;;;5088578;28;20233;-63
2023/06/19 02:14:15;;;;;;;;;;;;;;;;;;5088987;28;19924;-63
2023/06/19 02:16:43;;;;;;;;;;;;;;;;;;5070806;28;19927;-63
2023/06/19 02:19:09;;;;;;;;;;;;;;;;;;5088685;28;19931;-63
2023/06/19 02:21:35;;;;;;;;;;;;;;;;;;5089332;28;19920;-63
2023/06/19 02:24:00;;;;;;;;;;;;;;;;;;5091113;28;19920;-63
2023/06/19 02:26:29;;;;;;;;;;;;;;;;;;5080082;28;19928;-63
2023/06/19 02:28:54;;;;;;;;;;;;;;;;;;5072981;28;20374;-63
2023/06/19 02:31:20;;;;;;;;;;;;;;;;;;5089939;28;19924;-63
2023/06/19 02:33:46;;;;;;;;;;;;;;;;;;5092493;28;19924;-63
2023/06/19 02:36:12;;;;;;;;;;;;;;;;;;5092882;28;19967;-63
2023/06/19 02:38:38;;;;;;;;;;;;;;;;;;5092982;28;20024;-63
2023/06/19 02:41:04;;;;;;;;;;;;;;;;;;5092544;28;19924;-63
2023/06/19 02:43:30;;;;;;;;;;;;;;;;;;5092822;28;20586;-63
2023/06/19 02:45:56;;;;;;;;;;;;;;;;;;5093201;28;19926;-63
2023/06/19 02:48:23;;;;;;;;;;;;;;;;;;5092428;28;20378;-63
2023/06/19 02:50:49;;;;;;;;;;;;;;;;;;5092697;28;20313;-63
2023/06/19 02:53:16;;;;;;;;;;;;;;;;;;5092610;28;19920;-63
2023/06/19 02:55:42;;;;;;;;;;;;;;;;;;5092061;28;19920;-63
2023/06/19 02:58:08;;;;;;;;;;;;;;;;;;5092807;28;20034;-63
2023/06/19 03:00:34;;;;;;;;;;;;;;;;;;5092636;28;19920;-62
2023/06/19 03:03:00;;;;;;;;;;;;;;;;;;5092161;28;19924;-62
2023/06/19 03:05:27;;;;;;;;;;;;;;;;;;5092613;28;19923;-62
2023/06/19 03:07:52;;;;;;;;;;;;;;;;;;5092801;28;20081;-62
2023/06/19 03:10:18;;;;;;;;;;;;;;;;;;5092295;28;19928;-62
2023/06/19 03:12:44;;;;;;;;;;;;;;;;;;5092126;28;19920;-62
2023/06/19 03:15:10;;;;;;;;;;;;;;;;;;5092189;28;19927;-62
2023/06/19 03:17:36;;;;;;;;;;;;;;;;;;5073833;28;19920;-62
2023/06/19 03:20:02;;;;;;;;;;;;;;;;;;5091767;28;20327;-62
2023/06/19 03:22:28;;;;;;;;;;;;;;;;;;5074133;28;19959;-62
2023/06/19 03:24:54;;;;;;;;;;;;;;;;;;5091710;28;20107;-62
2023/06/19 03:27:20;;;;;;;;;;;;;;;;;;5053564;28;20153;-62
2023/06/19 03:29:46;;;;;;;;;;;;;;;;;;5075501;28;20402;-62
2023/06/19 03:32:12;;;;;;;;;;;;;;;;;;5092111;28;19927;-62
2023/06/19 03:34:38;;;;;;;;;;;;;;;;;;5091063;28;19920;-62
2023/06/19 03:37:04;;;;;;;;;;;;;;;;;;5092103;28;19924;-62
2023/06/19 03:39:30;;;;;;;;;;;;;;;;;;5092017;28;20017;-62
2023/06/19 03:41:56;;;;;;;;;;;;;;;;;;5091343;28;19982;-62
2023/06/19 03:44:21;;;;;;;;;;;;;;;;;;5091308;28;19945;-62
2023/06/19 03:46:47;;;;;;;;;;;;;;;;;;5091807;28;20010;-62
2023/06/19 03:49:13;;;;;;;;;;;;;;;;;;5091220;28;20289;-62
2023/06/19 03:51:39;;;;;;;;;;;;;;;;;;5092708;28;19935;-62
2023/06/19 03:54:05;;;;;;;;;;;;;;;;;;5093327;28;19920;-62
2023/06/19 03:56:31;;;;;;;;;;;;;;;;;;5093051;28;19946;-62
2023/06/19 03:58:57;;;;;;;;;;;;;;;;;;5093563;28;19963;-62
2023/06/19 04:01:23;;;;;;;;;;;;;;;;;;5093464;28;19931;-62
2023/06/19 04:03:49;;;;;;;;;;;;;;;;;;5092910;28;19920;-62
2023/06/19 04:06:15;;;;;;;;;;;;;;;;;;5093335;28;19995;-62
2023/06/19 04:08:41;;;;;;;;;;;;;;;;;;5093316;28;19985;-62
2023/06/19 04:11:07;;;;;;;;;;;;;;;;;;5092834;28;20460;-62
2023/06/19 04:13:33;;;;;;;;;;;;;;;;;;5093349;28;19981;-62
2023/06/19 04:15:59;;;;;;;;;;;;;;;;;;5093267;28;19924;-62
2023/06/19 04:18:25;;;;;;;;;;;;;;;;;;5092686;28;19920;-62
2023/06/19 04:20:51;;;;;;;;;;;;;;;;;;5093050;28;19963;-62
2023/06/19 04:23:16;;;;;;;;;;;;;;;;;;5093117;28;19920;-62
2023/06/19 04:25:42;;;;;;;;;;;;;;;;;;5086026;28;19932;-62
2023/06/19 04:28:08;;;;;;;;;;;;;;;;;;5072725;28;19968;-62
2023/06/19 04:30:34;;;;;;;;;;;;;;;;;;5083192;28;19986;-62
2023/06/19 04:33:00;;;;;;;;;;;;;;;;;;5092172;28;19924;-62
2023/06/19 04:35:26;;;;;;;;;;;;;;;;;;5074457;28;19920;-62
2023/06/19 04:37:52;;;;;;;;;;;;;;;;;;5092841;28;20416;-62
2023/06/19 04:40:18;;;;;;;;;;;;;;;;;;5092303;28;19924;-62
2023/06/19 04:42:44;;;;;;;;;;;;;;;;;;5092736;28;19989;-62
2023/06/19 04:45:10;;;;;;;;;;;;;;;;;;5092430;28;19943;-62
2023/06/19 04:47:36;;;;;;;;;;;;;;;;;;5091464;28;19959;-62
2023/06/19 04:50:02;;;;;;;;;;;;;;;;;;5092335;28;19928;-62
2023/06/19 04:52:28;;;;;;;;;;;;;;;;;;5092480;28;19920;-62
2023/06/19 04:54:54;;;;;;;;;;;;;;;;;;5091860;28;19999;-62
2023/06/19 04:57:20;;;;;;;;;;;;;;;;;;5092395;28;19931;-62
2023/06/19 04:59:46;;;;;;;;;;;;;;;;;;5092428;28;19920;-62
2023/06/19 05:02:12;;;;;;;;;;;;;;;;;;5091908;28;19920;-62
2023/06/19 05:04:38;;;;;;;;;;;;;;;;;;5092282;28;19939;-62
2023/06/19 05:07:04;;;;;;;;;;;;;;;;;;5091991;28;19928;-62
2023/06/19 05:09:30;;;;;;;;;;;;;;;;;;5091690;28;19927;-62
2023/06/19 05:11:58;;;;;;;;;;;;;;;;;;5092312;28;19963;-62
2023/06/19 05:14:24;;;;;;;;;;;;;;;;;;5092064;28;19951;-62
2023/06/19 05:16:50;;;;;;;;;;;;;;;;;;5091813;28;19928;-62
2023/06/19 05:19:15;;;;;;;;;;;;;;;;;;5073572;28;19935;-62
2023/06/19 05:21:41;;;;;;;;;;;;;;;;;;5091931;28;19982;-62
2023/06/19 05:24:07;;;;;;;;;;;;;;;;;;5091409;28;19998;-63
2023/06/19 05:26:33;;;;;;;;;;;;;;;;;;5078274;28;19929;-63
2023/06/19 05:28:59;;;;;;;;;;;;;;;;;;5071544;28;20003;-63
2023/06/19 05:31:25;;;;;;;;;;;;;;;;;;5088701;28;20061;-62
2023/06/19 05:33:51;;;;;;;;;;;;;;;;;;5091464;28;19959;-62
2023/06/19 05:36:17;;;;;;;;;;;;;;;;;;5091107;28;19967;-62
2023/06/19 05:38:43;;;;;;;;;;;;;;;;;;5090973;28;19927;-62
2023/06/19 05:41:09;;;;;;;;;;;;;;;;;;5091032;28;19935;-62
2023/06/19 05:43:35;;;;;;;;;;;;;;;;;;5090812;28;19920;-62
2023/06/19 05:46:02;;;;;;;;;;;;;;;;;;5090456;28;19969;-62
2023/06/19 05:48:28;;;;;;;;;;;;;;;;;;5091301;28;19920;-62
2023/06/19 05:50:54;;;;;;;;;;;;;;;;;;5091309;28;19928;-63
2023/06/19 05:53:20;;;;;;;;;;;;;;;;;;5090911;28;19931;-63
2023/06/19 05:55:46;;;;;;;;;;;;;;;;;;5091462;28;20341;-63
2023/06/19 05:58:12;;;;;;;;;;;;;;;;;;5091154;28;19928;-63
2023/06/19 06:00:37;;;;;;;;;;;;;;;;;;5091028;28;19920;-63
2023/06/19 06:03:03;;;;;;;;;;;;;;;;;;5091045;28;20011;-63
2023/06/19 06:05:29;;;;;;;;;;;;;;;;;;5091029;28;19924;-63
2023/06/19 06:07:55;;;;;;;;;;;;;;;;;;5090226;28;19989;-64
2023/06/19 06:10:21;;;;;;;;;;;;;;;;;;5090315;28;19923;-61
2023/06/19 06:12:47;;;;;;;;;;;;;;;;;;5090958;28;19920;-61
2023/06/19 06:15:13;;;;;;;;;;;;;;;;;;5090892;28;19974;-61
2023/06/19 06:17:39;;;;;;;;;;;;;;;;;;5072059;28;19975;-62
2023/06/19 06:20:11;;;;;;;;;;;;;;;;;;5091033;28;19924;-63
2023/06/19 06:22:37;;;;;;;;;;;;;;;;;;5090449;28;20019;-59
2023/06/19 06:25:02;;;;;;;;;;;;;;;;;;5089079;28;19924;-60
2023/06/19 06:27:28;;;;;;;;;;;;;;;;;;5070674;28;19920;-60
2023/06/19 06:29:54;;;;;;;;;;;;;;;;;;5079700;28;19967;-60
2023/06/19 06:32:20;;;;;;;;;;;;;;;;;;5090454;28;19931;-60
2023/06/19 06:34:47;;;;;;;;;;;;;;;;;;5072224;28;19924;-61
2023/06/19 06:37:13;;;;;;;;;;;;;;;;;;5089990;28;19978;-63
2023/06/19 06:39:39;;;;;;;;;;;;;;;;;;5090141;28;20002;-64
2023/06/19 06:42:05;;;;;;;;;;;;;;;;;;5073322;28;20006;-62
2023/06/19 06:44:31;;;;;;;;;;;;;;;;;;5089490;28;19927;-62
2023/06/19 06:46:57;;;;;;;;;;;;;;;;;;5071036;28;20005;-62
2023/06/19 06:49:23;;;;;;;;;;;;;;;;;;5076553;28;19933;-62
2023/06/19 06:51:49;;;;;;;;;;;;;;;;;;5057260;28;20503;-67
2023/06/19 06:54:15;;;;;;;;;;;;;;;;;;5087707;28;20010;-67
2023/06/19 06:56:41;;;;;;;;;;;;;;;;;;5068144;28;19924;-64
2023/06/19 06:59:08;;;;;;;;;;;;;;;;;;5089139;28;20019;-64
2023/06/19 07:01:34;;;;;;;;;;;;;;;;;;5069846;28;19993;-64
2023/06/19 07:04:00;;;;;;;;;;;;;;;;;;5088116;28;20485;-65
2023/06/19 07:06:28;;;;;;;;;;;;;;;;;;5053434;28;19927;-65
2023/06/19 07:08:54;;;;;;;;;;;;;;;;;;5064625;28;19924;-64
2023/06/19 07:11:20;;;;;;;;;;;;;;;;;;5087766;28;20398;-66
2023/06/19 07:13:46;;;;;;;;;;;;;;;;;;5071144;28;20049;-65
2023/06/19 07:16:12;;;;;;;;;;;;;;;;;;5057803;28;19924;-65
2023/06/19 07:18:40;;;;;;;;;;;;;;;;;;5091685;28;19924;-66
2023/06/19 07:21:06;;;;;;;;;;;;;;;;;;5088329;28;19925;-66
2023/06/19 07:23:32;;;;;;;;;;;;;;;;;;5066816;28;20417;-64
2023/06/19 07:25:58;;;;;;;;;;;;;;;;;;5073549;28;19958;-64
2023/06/19 07:28:24;;;;;;;;;;;;;;;;;;5081181;28;19924;-64
2023/06/19 07:30:52;;;;;;;;;;;;;;;;;;5083260;28;20014;-64
2023/06/19 07:33:18;;;;;;;;;;;;;;;;;;5080477;28;19984;-65
2023/06/19 07:35:43;;;;;;;;;;;;;;;;;;5073576;28;20359;-65
2023/06/19 07:38:09;;;;;;;;;;;;;;;;;;5087758;28;19924;-66
2023/06/19 07:40:35;;;;;;;;;;;;;;;;;;5090127;28;19920;-63
2023/06/19 07:43:01;;;;;;;;;;;;;;;;;;5082541;28;19985;-66
2023/06/19 07:45:27;;;;;;;;;;;;;;;;;;5078975;28;19977;-64
2023/06/19 07:47:53;;;;;;;;;;;;;;;;;;5074736;28;19981;-63
2023/06/19 07:50:19;;;;;;;;;;;;;;;;;;5086719;28;19932;-63
2023/06/19 07:52:45;;;;;;;;;;;;;;;;;;5080665;28;19927;-64
2023/06/19 07:55:11;;;;;;;;;;;;;;;;;;5077881;28;19920;-64
2023/06/19 07:57:37;;;;;;;;;;;;;;;;;;5082047;28;19920;-63
2023/06/19 08:00:09;;;;;;;;;;;;;;;;;;5090057;28;19928;-63
2023/06/19 08:02:35;;;;;;;;;;;;;;;;;;5091575;28;20015;-65
2023/06/19 08:05:01;;;;;;;;;;;;;;;;;;5086742;28;19943;-63
2023/06/19 08:07:27;;;;;;;;;;;;;;;;;;5072532;28;20003;-65
2023/06/19 08:09:53;;;;;;;;;;;;;;;;;;5059378;28;20528;-66
2023/06/19 08:12:19;;;;;;;;;;;;;;;;;;5056560;28;19924;-67
2023/06/19 08:14:45;;;;;;;;;;;;;;;;;;5079329;28;19920;-65
2023/06/19 08:17:11;;;;;;;;;;;;;;;;;;5088998;28;20081;-67
2023/06/19 08:19:38;;;;;;;;;;;;;;;;;;5082617;28;19932;-65
2023/06/19 08:22:04;;;;;;;;;;;;;;;;;;5076988;28;20427;-63
2023/06/19 08:24:30;;;;;;;;;;;;;;;;;;5081592;28;19924;-69
2023/06/19 08:26:56;;;;;;;;;;;;;;;;;;5063715;28;19928;-63
2023/06/19 08:29:22;;;;;;;;;;;;;;;;;;5073938;28;20003;-66
2023/06/19 08:31:48;;;;;;;;;;;;;;;;;;5083099;28;19931;-66
2023/06/19 08:34:14;;;;;;;;;;;;;;;;;;5080839;28;19923;-66
2023/06/19 08:36:40;;;;;;;;;;;;;;;;;;5071470;28;19924;-66
2023/06/19 08:39:08;;;;;;;;;;;;;;;;;;5084109;28;20204;-66
2023/06/19 08:41:33;;;;;;;;;;;;;;;;;;5040081;28;19974;-66
2023/06/19 08:43:59;;;;;;;;;;;;;;;;;;5074634;28;19974;-64
2023/06/19 08:46:25;;;;;;;;;;;;;;;;;;5050890;28;20007;-64
2023/06/19 08:48:51;;;;;;;;;;;;;;;;;;5087282;28;19920;-63
2023/06/19 08:51:17;;;;;;;;;;;;;;;;;;5075912;28;19928;-64
2023/06/19 08:53:43;;;;;;;;;;;;;;;;;;5057978;28;20031;-64
2023/06/19 08:56:09;;;;;;;;;;;;;;;;;;5061821;28;20026;-63
2023/06/19 08:58:38;;;;;;;;;;;;;;;;;;5064260;28;19955;-66
2023/06/19 09:01:04;;;;;;;;;;;;;;;;;;5075386;28;19978;-64
2023/06/19 09:03:30;;;;;;;;;;;;;;;;;;5087658;28;20386;-65
2023/06/19 09:05:56;;;;;;;;;;;;;;;;;;5089885;28;19934;-67
2023/06/19 09:08:21;;;;;;;;;;;;;;;;;;5090605;28;19924;-67
2023/06/19 09:10:47;;;;;;;;;;;;;;;;;;5089103;28;19978;-65
2023/06/19 09:13:13;;;;;;;;;;;;;;;;;;5082654;28;19935;-64
2023/06/19 09:15:39;;;;;;;;;;;;;;;;;;5089610;28;19924;-64
2023/06/19 09:18:05;;;;;;;;;;;;;;;;;;5053328;28;19924;-64
2023/06/19 09:20:31;;;;;;;;;;;;;;;;;;5066498;28;19964;-64
2023/06/19 09:22:57;;;;;;;;;;;;;;;;;;5060509;28;19924;-65
2023/06/19 09:25:25;;;;;;;;;;;;;;;;;;5077792;28;19954;-64
2023/06/19 09:27:51;;;;;;;;;;;;;;;;;;5063249;28;20401;-66
2023/06/19 09:30:17;;;;;;;;;;;;;;;;;;5043798;28;19929;-65
2023/06/19 09:32:43;;;;;;;;;;;;;;;;;;5080798;28;19924;-67
2023/06/19 09:35:11;;;;;;;;;;;;;;;;;;5085737;28;19926;-65
2023/06/19 09:37:37;;;;;;;;;;;;;;;;;;5070342;28;20348;-66
2023/06/19 09:40:10;;;;;;;;;;;;;;;;;;5070601;28;19928;-68
2023/06/19 09:42:36;;;;;;;;;;;;;;;;;;5070580;28;19920;-64
2023/06/19 09:45:04;;;;;;;;;;;;;;;;;;5084113;28;19926;-68
2023/06/19 09:47:29;;;;;;;;;;;;;;;;;;5080534;28;19970;-65
2023/06/19 09:49:55;;;;;;;;;;;;;;;;;;5087531;28;19924;-65
2023/06/19 09:52:24;;;;;;;;;;;;;;;;;;5087520;28;19932;-66
2023/06/19 09:54:50;;;;;;;;;;;;;;;;;;5081485;28;19920;-66
2023/06/19 09:57:17;;;;;;;;;;;;;;;;;;5078992;28;20263;-64
2023/06/19 09:59:43;;;;;;;;;;;;;;;;;;5069907;28;19926;-64
2023/06/19 10:02:09;;;;;;;;;;;;;;;;;;5078262;28;19921;-66
2023/06/19 10:04:35;;;;;;;;;;;;;;;;;;5080838;28;19959;-65
2023/06/19 10:07:01;;;;;;;;;;;;;;;;;;5077680;28;19955;-65
2023/06/19 10:09:27;;;;;;;;;;;;;;;;;;5077995;28;19986;-66
2023/06/19 10:11:54;;;;;;;;;;;;;;;;;;5071382;28;20138;-65
2023/06/19 10:14:20;;;;;;;;;;;;;;;;;;5074847;28;20620;-63
2023/06/19 10:16:46;;;;;;;;;;;;;;;;;;5058330;28;20405;-64
2023/06/19 10:19:12;;;;;;;;;;;;;;;;;;5081126;28;20578;-65
2023/06/19 10:21:38;;;;;;;;;;;;;;;;;;5075096;28;19928;-65
2023/06/19 10:24:04;;;;;;;;;;;;;;;;;;5078007;28;19923;-64
2023/06/19 10:26:30;;;;;;;;;;;;;;;;;;5078909;28;19935;-65
2023/06/19 10:28:56;;;;;;;;;;;;;;;;;;5072342;28;19927;-65
2023/06/19 10:31:22;;;;;;;;;;;;;;;;;;5067192;28;19928;-64
2023/06/19 10:33:48;;;;;;;;;;;;;;;;;;5089003;28;20275;-64
2023/06/19 10:36:14;;;;;;;;;;;;;;;;;;5089014;28;19935;-65
2023/06/19 10:38:40;;;;;;;;;;;;;;;;;;5088917;28;19920;-64
2023/06/19 10:41:06;;;;;;;;;;;;;;;;;;5090019;28;19927;-64
2023/06/19 10:43:32;;;;;;;;;;;;;;;;;;5088997;28;19924;-65
2023/06/19 10:45:59;;;;;;;;;;;;;;;;;;5093376;28;19931;-64
2023/06/19 10:48:25;;;;;;;;;;;;;;;;;;5094175;28;20290;-64
2023/06/19 10:50:51;;;;;;;;;;;;;;;;;;5093069;28;19935;-64
2023/06/19 10:53:17;;;;;;;;;;;;;;;;;;5088430;28;19931;-65
2023/06/19 10:55:43;;;;;;;;;;;;;;;;;;5089732;28;19924;-65
2023/06/19 10:58:09;;;;;;;;;;;;;;;;;;5092982;28;20027;-65
2023/06/19 11:00:35;;;;;;;;;;;;;;;;;;5093834;28;19951;-65
2023/06/19 11:03:01;;;;;;;;;;;;;;;;;;5092869;28;19951;-65
2023/06/19 11:05:27;;;;;;;;;;;;;;;;;;5090842;28;19923;-66
2023/06/19 11:07:53;;;;;;;;;;;;;;;;;;5068761;28;19931;-64
2023/06/19 11:10:19;;;;;;;;;;;;;;;;;;5092240;28;19924;-68
2023/06/19 11:12:45;;;;;;;;;;;;;;;;;;5083989;28;19951;-65
2023/06/19 11:15:11;;;;;;;;;;;;;;;;;;5074143;28;19928;-66
2023/06/19 11:17:37;;;;;;;;;;;;;;;;;;5075430;28;19924;-66
2023/06/19 11:20:05;;;;;;;;;;;;;;;;;;5089935;28;19924;-65
2023/06/19 11:22:31;;;;;;;;;;;;;;;;;;5071302;28;19920;-65
2023/06/19 11:24:57;;;;;;;;;;;;;;;;;;5089897;28;19920;-65
2023/06/19 11:27:28;;;;;;;;;;;;;;;;;;5084095;28;19924;-67
2023/06/19 11:29:54;;;;;;;;;;;;;;;;;;5080034;28;19935;-66
2023/06/19 11:32:24;;;;;;;;;;;;;;;;;;5086554;28;19924;-66
2023/06/19 11:34:51;;;;;;;;;;;;;;;;;;5077539;28;20019;-65
2023/06/19 11:37:17;;;;;;;;;;;;;;;;;;5076692;28;19920;-63
2023/06/19 11:39:43;;;;;;;;;;;;;;;;;;5076965;28;20362;-64
2023/06/19 11:42:09;;;;;;;;;;;;;;;;;;5080187;28;19924;-66
2023/06/19 11:44:35;;;;;;;;;;;;;;;;;;5090791;28;19924;-66
2023/06/19 11:47:03;;;;;;;;;;;;;;;;;;5083431;28;19920;-64
2023/06/19 11:49:32;;;;;;;;;;;;;;;;;;5082241;28;19928;-64
2023/06/19 11:51:58;;;;;;;;;;;;;;;;;;5075338;28;19924;-63
2023/06/19 11:54:24;;;;;;;;;;;;;;;;;;5076676;28;19935;-64
2023/06/19 11:56:50;;;;;;;;;;;;;;;;;;5074354;28;19947;-65
2023/06/19 11:59:16;;;;;;;;;;;;;;;;;;5082785;28;19920;-63
2023/06/19 12:01:42;;;;;;;;;;;;;;;;;;5080137;28;19946;-63
2023/06/19 12:04:08;;;;;;;;;;;;;;;;;;5082693;28;20378;-62
2023/06/19 12:06:35;;;;;;;;;;;;;;;;;;5076329;28;19931;-62
2023/06/19 12:09:01;;;;;;;;;;;;;;;;;;5073728;28;20409;-64
2023/06/19 12:11:27;;;;;;;;;;;;;;;;;;5076556;28;19925;-62
2023/06/19 12:13:53;;;;;;;;;;;;;;;;;;5080785;28;19987;-62
2023/06/19 12:16:19;;;;;;;;;;;;;;;;;;5077284;28;20003;-61
2023/06/19 12:18:45;;;;;;;;;;;;;;;;;;5076639;28;20117;-62
2023/06/19 12:21:11;;;;;;;;;;;;;;;;;;5078103;28;19923;-63
2023/06/19 12:23:37;;;;;;;;;;;;;;;;;;5088838;28;19924;-62
2023/06/19 12:26:03;;;;;;;;;;;;;;;;;;5079188;28;19931;-59
2023/06/19 12:28:29;;;;;;;;;;;;;;;;;;5078382;28;20678;-63
2023/06/19 12:30:56;;;;;;;;;;;;;;;;;;5081629;28;19924;-62
2023/06/19 12:33:22;;;;;;;;;;;;;;;;;;5075016;28;20015;-63
2023/06/19 12:35:48;;;;;;;;;;;;;;;;;;5085128;28;20010;-63
2023/06/19 12:38:14;;;;;;;;;;;;;;;;;;5091657;28;20480;-62
2023/06/19 12:40:40;;;;;;;;;;;;;;;;;;5091331;28;19928;-61
2023/06/19 12:43:06;;;;;;;;;;;;;;;;;;5091509;28;19924;-61
2023/06/19 12:45:32;;;;;;;;;;;;;;;;;;5091710;28;19920;-61
2023/06/19 12:47:58;;;;;;;;;;;;;;;;;;5086541;28;19946;-62
2023/06/19 12:50:24;;;;;;;;;;;;;;;;;;5081326;28;19932;-62
2023/06/19 12:52:50;;;;;;;;;;;;;;;;;;5078895;28;20006;-61
2023/06/19 12:55:16;;;;;;;;;;;;;;;;;;5090152;28;19924;-60
2023/06/19 12:57:42;;;;;;;;;;;;;;;;;;5072355;28;19924;-60
2023/06/19 13:00:08;;;;;;;;;;;;;;;;;;5090485;28;19950;-62
2023/06/19 13:02:34;;;;;;;;;;;;;;;;;;5089405;28;19932;-61
2023/06/19 13:05:00;;;;;;;;;;;;;;;;;;5089869;28;20001;-60
2023/06/19 13:07:26;;;;;;;;;;;;;;;;;;5089211;28;19966;-61
2023/06/19 13:09:52;;;;;;;;;;;;;;;;;;5089700;28;20030;-62
2023/06/19 13:12:17;;;;;;;;;;;;;;;;;;5089850;28;19924;-61
2023/06/19 13:14:43;;;;;;;;;;;;;;;;;;5090021;28;19959;-60
2023/06/19 13:17:09;;;;;;;;;;;;;;;;;;5089990;28;19923;-60
2023/06/19 13:19:35;;;;;;;;;;;;;;;;;;5083514;28;19951;-60
2023/06/19 13:22:01;;;;;;;;;;;;;;;;;;5072038;28;19931;-60
2023/06/19 13:24:27;;;;;;;;;;;;;;;;;;5090416;28;19942;-61
2023/06/19 13:26:53;;;;;;;;;;;;;;;;;;5089509;28;20281;-61
2023/06/19 13:29:19;;;;;;;;;;;;;;;;;;5090605;28;19924;-62
2023/06/19 13:31:46;;;;;;;;;;;;;;;;;;5081972;28;19932;-63
2023/06/19 13:34:12;;;;;;;;;;;;;;;;;;5089638;28;19959;-62
2023/06/19 13:36:38;;;;;;;;;;;;;;;;;;5089781;28;19963;-63
2023/06/19 13:39:04;;;;;;;;;;;;;;;;;;5089941;28;19931;-61
2023/06/19 13:41:34;;;;;;;;;;;;;;;;;;5089919;28;20275;-62
2023/06/19 13:44:00;;;;;;;;;;;;;;;;;;5090091;28;19920;-61
2023/06/19 13:46:26;;;;;;;;;;;;;;;;;;5089964;28;19920;-61
2023/06/19 13:48:52;;;;;;;;;;;;;;;;;;5089547;28;19951;-62
2023/06/19 13:51:18;;;;;;;;;;;;;;;;;;5080512;28;19935;-62
2023/06/19 13:53:44;;;;;;;;;;;;;;;;;;5089830;28;19981;-62
2023/06/19 13:56:10;;;;;;;;;;;;;;;;;;5089075;28;19939;-62
2023/06/19 13:58:36;;;;;;;;;;;;;;;;;;5089626;28;20244;-60
2023/06/19 14:01:02;;;;;;;;;;;;;;;;;;5089576;28;19999;-60
2023/06/19 14:03:28;;;;;;;;;;;;;;;;;;5088632;28;19985;-60
2023/06/19 14:05:54;;;;;;;;;;;;;;;;;;5089350;28;19932;-60
2023/06/19 14:08:20;;;;;;;;;;;;;;;;;;5089054;28;19946;-62
2023/06/19 14:10:45;;;;;;;;;;;;;;;;;;5088986;28;19928;-61
2023/06/19 14:13:11;;;;;;;;;;;;;;;;;;5090042;28;19926;-61
2023/06/19 14:15:37;;;;;;;;;;;;;;;;;;5071754;28;19961;-59
2023/06/19 14:18:03;;;;;;;;;;;;;;;;;;5089556;28;19955;-60
2023/06/19 14:20:29;;;;;;;;;;;;;;;;;;5071949;28;20002;-60
2023/06/19 14:22:55;;;;;;;;;;;;;;;;;;5089769;28;19924;-60
2023/06/19 14:25:21;;;;;;;;;;;;;;;;;;5089222;28;19928;-60
2023/06/19 14:27:47;;;;;;;;;;;;;;;;;;5090084;28;19924;-61
2023/06/19 14:30:13;;;;;;;;;;;;;;;;;;5090293;28;19962;-61
2023/06/19 14:32:39;;;;;;;;;;;;;;;;;;5072023;28;19920;-61
2023/06/19 14:35:05;;;;;;;;;;;;;;;;;;5090582;28;19985;-61
2023/06/19 14:37:31;;;;;;;;;;;;;;;;;;5090163;28;19920;-61
2023/06/19 14:39:57;;;;;;;;;;;;;;;;;;5090216;28;19963;-61
2023/06/19 14:42:23;;;;;;;;;;;;;;;;;;5090606;28;19927;-61
2023/06/19 14:44:49;;;;;;;;;;;;;;;;;;5090430;28;19924;-61
2023/06/19 14:47:15;;;;;;;;;;;;;;;;;;5089915;28;19964;-61
2023/06/19 14:49:40;;;;;;;;;;;;;;;;;;5090444;28;20069;-61
2023/06/19 14:52:06;;;;;;;;;;;;;;;;;;5090415;28;19925;-61
2023/06/19 14:54:32;;;;;;;;;;;;;;;;;;5089949;28;19920;-61
2023/06/19 14:56:58;;;;;;;;;;;;;;;;;;5090693;28;19924;-61
2023/06/19 14:59:24;;;;;;;;;;;;;;;;;;5090500;28;19963;-61
2023/06/19 15:01:50;;;;;;;;;;;;;;;;;;5089819;28;19924;-61
2023/06/19 15:04:16;;;;;;;;;;;;;;;;;;5090380;28;19927;-61
2023/06/19 15:06:42;;;;;;;;;;;;;;;;;;5090411;28;20062;-61
2023/06/19 15:09:08;;;;;;;;;;;;;;;;;;5089800;28;19924;-61
2023/06/19 15:11:34;;;;;;;;;;;;;;;;;;5090393;28;19951;-61
2023/06/19 15:14:02;;;;;;;;;;;;;;;;;;5090195;28;20019;-61
2023/06/19 15:16:28;;;;;;;;;;;;;;;;;;5089821;28;19959;-61
2023/06/19 15:18:54;;;;;;;;;;;;;;;;;;5090297;28;19963;-61
2023/06/19 15:21:20;;;;;;;;;;;;;;;;;;5090263;28;20021;-61
2023/06/19 15:23:46;;;;;;;;;;;;;;;;;;5089393;28;19924;-61
2023/06/19 15:26:12;;;;;;;;;;;;;;;;;;5079612;28;19970;-61
2023/06/19 15:28:38;;;;;;;;;;;;;;;;;;5069950;28;19924;-61
2023/06/19 15:31:04;;;;;;;;;;;;;;;;;;5085611;28;19928;-61
2023/06/19 15:33:30;;;;;;;;;;;;;;;;;;5093656;28;19924;-61
2023/06/19 15:35:56;;;;;;;;;;;;;;;;;;5093452;28;19931;-61
2023/06/19 15:38:22;;;;;;;;;;;;;;;;;;5093326;28;20564;-61
2023/06/19 15:40:48;;;;;;;;;;;;;;;;;;5093733;28;19923;-61
2023/06/19 15:43:14;;;;;;;;;;;;;;;;;;5093479;28;19964;-61
2023/06/19 15:45:40;;;;;;;;;;;;;;;;;;5092773;28;19920;-61
2023/06/19 15:48:06;;;;;;;;;;;;;;;;;;5093467;28;19942;-61
2023/06/19 15:50:34;;;;;;;;;;;;;;;;;;5093353;28;20015;-61
2023/06/19 15:53:00;;;;;;;;;;;;;;;;;;5092826;28;19959;-61
2023/06/19 15:55:27;;;;;;;;;;;;;;;;;;5093398;28;20470;-61
2023/06/19 15:57:53;;;;;;;;;;;;;;;;;;5093442;28;20007;-61
2023/06/19 16:00:19;;;;;;;;;;;;;;;;;;5092853;28;19924;-61
2023/06/19 16:02:47;;;;;;;;;;;;;;;;;;5093329;28;20422;-61
2023/06/19 16:05:13;;;;;;;;;;;;;;;;;;5093115;28;19920;-61
2023/06/19 16:07:39;;;;;;;;;;;;;;;;;;5092727;28;19927;-61
2023/06/19 16:10:05;;;;;;;;;;;;;;;;;;5092809;28;19930;-61
2023/06/19 16:12:31;;;;;;;;;;;;;;;;;;5074795;28;19924;-61
2023/06/19 16:14:57;;;;;;;;;;;;;;;;;;5073876;28;19920;-61
2023/06/19 16:17:23;;;;;;;;;;;;;;;;;;5092830;28;19924;-61
2023/06/19 16:19:49;;;;;;;;;;;;;;;;;;5092717;28;19920;-61
2023/06/19 16:22:15;;;;;;;;;;;;;;;;;;5092535;28;19920;-61
2023/06/19 16:24:41;;;;;;;;;;;;;;;;;;5092661;28;19924;-61
2023/06/19 16:27:07;;;;;;;;;;;;;;;;;;5074568;28;19924;-61
2023/06/19 16:29:33;;;;;;;;;;;;;;;;;;5074030;28;19925;-61
2023/06/19 16:32:00;;;;;;;;;;;;;;;;;;5092185;28;19924;-61
2023/06/19 16:34:26;;;;;;;;;;;;;;;;;;5092483;28;19920;-61
2023/06/19 16:36:52;;;;;;;;;;;;;;;;;;5092407;28;20057;-61